Terminal Aerodrome Forecast
Issued by NWS

Current Version | Previous Version | Text Only | Print | Product List | Glossary On
Versions: 1 2 3 4 5 6 7 8 9 10 11 12 13 14 15 16
000
FTUS41 KILN 010100 AAA
TAFLUK
TAF AMD
KLUK 010116Z 0101/0124 32012KT P6SM -SHRA OVC015
     FM010200 32015G24KT P6SM -RASN OVC015
     FM010300 33018G28KT 5SM -SHSN BR OVC015
     FM010600 34016G26KT P6SM VCSH OVC015
     FM010800 34014G24KT P6SM OVC025
     FM012000 34015G24KT P6SM BKN035
     FM012300 34007KT P6SM SKC=

USA.gov is the U.S. government's official web portal to all federal, state and local government web resources and services.